createdAt,value
2023-01-29T00:00:18.192Z,29.72
2023-01-29T00:00:47.855Z,29.75
2023-01-29T00:01:17.940Z,29.79
2023-01-29T00:01:48.135Z,29.77
2023-01-29T00:02:18.173Z,29.77
2023-01-29T00:02:48.249Z,29.71
2023-01-29T00:03:18.171Z,29.75
2023-01-29T00:03:48.127Z,29.66
2023-01-29T00:04:18.220Z,29.73
2023-01-29T00:04:48.287Z,29.67
2023-01-29T00:05:27.636Z,29.69
2023-01-29T00:05:48.443Z,29.69
2023-01-29T00:06:18.527Z,29.73
2023-01-29T00:06:48.620Z,29.70
2023-01-29T00:07:18.707Z,29.64
2023-01-29T00:07:48.779Z,29.70
2023-01-29T00:08:18.856Z,29.73
2023-01-29T00:08:48.942Z,29.71
2023-01-29T00:09:19.028Z,29.75
2023-01-29T00:09:49.104Z,29.66
2023-01-29T00:10:19.210Z,29.69
2023-01-29T00:10:49.292Z,29.73
2023-01-29T00:11:19.380Z,29.69
2023-01-29T00:11:49.462Z,29.67
2023-01-29T00:12:19.542Z,29.69
2023-01-29T00:12:49.623Z,29.67
2023-01-29T00:13:19.713Z,29.70
2023-01-29T00:13:51.080Z,29.64
2023-01-29T00:14:19.873Z,29.64
2023-01-29T00:14:49.950Z,29.70
2023-01-29T00:15:20.070Z,29.67
2023-01-29T00:15:50.034Z,29.64
2023-01-29T00:16:20.116Z,29.69
2023-01-29T00:16:50.235Z,29.64
2023-01-29T00:17:20.368Z,29.69
2023-01-29T00:17:50.360Z,29.69
2023-01-29T00:18:20.419Z,29.64
2023-01-29T00:18:50.496Z,29.60
2023-01-29T00:19:20.573Z,29.70
2023-01-29T00:19:50.647Z,29.66
2023-01-29T00:20:20.800Z,29.63
2023-01-29T00:20:50.741Z,29.66
2023-01-29T00:21:20.829Z,29.57
2023-01-29T00:21:50.907Z,29.61
2023-01-29T00:22:20.997Z,29.69
2023-01-29T00:22:51.080Z,29.61
2023-01-29T00:23:21.167Z,29.60
2023-01-29T00:23:51.243Z,29.57
2023-01-29T00:24:21.367Z,29.60
2023-01-29T00:24:51.315Z,29.63
2023-01-29T00:25:21.445Z,29.60
2023-01-29T00:25:51.420Z,29.60
2023-01-29T00:26:21.497Z,29.57
2023-01-29T00:26:51.575Z,29.54
2023-01-29T00:27:21.666Z,29.61
2023-01-29T00:27:51.746Z,29.57
2023-01-29T00:28:21.832Z,29.67
2023-01-29T00:28:51.966Z,29.57
2023-01-29T00:29:22.057Z,29.66
2023-01-29T00:29:52.139Z,29.63
2023-01-29T00:30:22.217Z,29.64
2023-01-29T00:30:52.295Z,29.64
2023-01-29T00:31:22.551Z,29.64
2023-01-29T00:31:52.457Z,29.61
2023-01-29T00:32:22.516Z,29.58
2023-01-29T00:32:52.600Z,29.64
2023-01-29T00:33:22.658Z,29.63
2023-01-29T00:33:52.738Z,29.60
2023-01-29T00:34:22.823Z,29.66
2023-01-29T00:34:52.895Z,29.64
2023-01-29T00:35:22.984Z,29.69
2023-01-29T00:35:53.072Z,29.67
2023-01-29T00:36:23.156Z,29.67
2023-01-29T00:36:53.226Z,29.69
2023-01-29T00:37:23.315Z,29.69
2023-01-29T00:37:53.393Z,29.67
2023-01-29T00:38:23.519Z,29.61
2023-01-29T00:38:53.606Z,29.63
2023-01-29T00:39:29.234Z,29.58
2023-01-29T00:39:53.734Z,29.61
2023-01-29T00:40:23.820Z,29.59
2023-01-29T00:40:53.904Z,29.66
2023-01-29T00:41:23.986Z,29.63
2023-01-29T00:41:54.059Z,29.66
2023-01-29T00:42:24.157Z,29.63
2023-01-29T00:42:54.247Z,29.67
2023-01-29T00:43:24.304Z,29.67
2023-01-29T00:43:54.395Z,29.61
2023-01-29T00:44:24.480Z,29.66
2023-01-29T00:44:54.566Z,29.63
2023-01-29T00:45:24.668Z,29.63
2023-01-29T00:45:54.742Z,29.60
2023-01-29T00:46:24.890Z,29.63
2023-01-29T00:46:54.989Z,29.55
2023-01-29T00:47:24.963Z,29.63
2023-01-29T00:47:55.074Z,29.60
2023-01-29T00:48:25.138Z,29.63
2023-01-29T00:48:55.155Z,29.61
2023-01-29T00:49:25.167Z,29.67
2023-01-29T00:49:55.165Z,29.62
2023-01-29T00:50:25.191Z,29.64
2023-01-29T00:50:55.210Z,29.63
2023-01-29T00:51:25.209Z,29.57
2023-01-29T00:51:55.213Z,29.59
2023-01-29T00:52:25.218Z,29.63
2023-01-29T00:52:55.220Z,29.61
2023-01-29T00:53:25.216Z,29.64
2023-01-29T00:53:55.234Z,29.61
2023-01-29T00:54:25.235Z,29.61
2023-01-29T00:54:55.245Z,29.64
2023-01-29T00:55:25.294Z,29.58
2023-01-29T00:55:55.285Z,29.58
2023-01-29T00:56:25.291Z,29.58
2023-01-29T00:56:55.294Z,29.62
2023-01-29T00:57:25.306Z,29.58
2023-01-29T00:57:55.304Z,29.64
2023-01-29T00:58:25.305Z,29.65
2023-01-29T00:58:55.374Z,29.61
2023-01-29T00:59:25.379Z,29.61
2023-01-29T00:59:55.397Z,29.58
2023-01-29T01:00:25.426Z,29.53
2023-01-29T01:00:55.476Z,29.64
2023-01-29T01:01:25.494Z,29.56
2023-01-29T01:01:55.560Z,29.52
2023-01-29T01:02:25.622Z,29.55
2023-01-29T01:02:55.638Z,29.58
2023-01-29T01:03:25.659Z,29.49
2023-01-29T01:03:55.655Z,29.56
2023-01-29T01:04:25.667Z,29.56
2023-01-29T01:04:55.702Z,29.55
2023-01-29T01:05:25.681Z,29.53
2023-01-29T01:05:55.689Z,29.52
2023-01-29T01:06:25.689Z,29.56
2023-01-29T01:06:55.693Z,29.55
2023-01-29T01:07:25.698Z,29.55
2023-01-29T01:07:55.707Z,29.53
2023-01-29T01:08:25.738Z,29.50
2023-01-29T01:08:55.735Z,29.49
2023-01-29T01:09:25.730Z,29.50
2023-01-29T01:09:55.732Z,29.52
2023-01-29T01:10:25.742Z,29.55
2023-01-29T01:10:55.744Z,29.48
2023-01-29T01:11:25.744Z,29.52
2023-01-29T01:11:55.747Z,29.56
2023-01-29T01:12:25.758Z,29.47
2023-01-29T01:12:55.766Z,29.52
2023-01-29T01:13:25.767Z,29.49
2023-01-29T01:13:55.772Z,29.52
2023-01-29T01:14:25.773Z,29.52
2023-01-29T01:14:55.836Z,29.53
2023-01-29T01:15:25.840Z,29.46
2023-01-29T01:15:55.899Z,29.49
2023-01-29T01:16:26.026Z,29.44
2023-01-29T01:16:55.932Z,29.47
2023-01-29T01:17:25.935Z,29.48
2023-01-29T01:17:55.948Z,29.49
2023-01-29T01:18:25.955Z,29.49
2023-01-29T01:18:55.988Z,29.46
2023-01-29T01:19:25.963Z,29.47
2023-01-29T01:19:55.962Z,29.52
2023-01-29T01:20:25.981Z,29.46
2023-01-29T01:20:55.982Z,29.53
2023-01-29T01:21:25.984Z,29.49
2023-01-29T01:21:55.989Z,29.48
2023-01-29T01:22:25.991Z,29.48
2023-01-29T01:22:55.994Z,29.52
2023-01-29T01:23:25.997Z,29.46
2023-01-29T01:23:56.117Z,29.48
2023-01-29T01:24:26.035Z,29.50
2023-01-29T01:24:56.033Z,29.55
2023-01-29T01:25:26.044Z,29.52
2023-01-29T01:25:56.058Z,29.49
2023-01-29T01:26:26.063Z,29.50
2023-01-29T01:26:56.080Z,29.58
2023-01-29T01:27:26.067Z,29.55
2023-01-29T01:27:56.097Z,29.53
2023-01-29T01:28:26.253Z,29.50
2023-01-29T01:28:56.122Z,29.61
2023-01-29T01:29:26.139Z,29.59
2023-01-29T01:29:56.131Z,29.60
2023-01-29T01:30:26.145Z,29.59
2023-01-29T01:30:56.201Z,29.59
2023-01-29T01:31:26.366Z,29.57
2023-01-29T01:31:56.393Z,29.53
2023-01-29T01:32:26.327Z,29.56
2023-01-29T01:32:56.339Z,29.47
2023-01-29T01:33:26.332Z,29.49
2023-01-29T01:33:56.346Z,29.53
2023-01-29T01:34:26.373Z,29.53
2023-01-29T01:34:56.359Z,29.53
2023-01-29T01:35:26.366Z,29.50
2023-01-29T01:35:56.365Z,29.50
2023-01-29T01:36:26.379Z,29.51
2023-01-29T01:36:56.442Z,29.57
2023-01-29T01:37:26.424Z,29.55
2023-01-29T01:37:56.430Z,29.53
2023-01-29T01:38:26.544Z,29.49
2023-01-29T01:38:56.622Z,29.44
2023-01-29T01:39:26.741Z,29.57
2023-01-29T01:39:56.797Z,29.49
2023-01-29T01:40:26.886Z,29.49
2023-01-29T01:40:56.959Z,29.50
2023-01-29T01:41:27.051Z,29.54
2023-01-29T01:41:57.138Z,29.49
2023-01-29T01:42:27.213Z,29.50
2023-01-29T01:42:57.297Z,29.48
2023-01-29T01:43:27.383Z,29.50
2023-01-29T01:43:57.467Z,29.49
2023-01-29T01:44:27.545Z,29.51
2023-01-29T01:44:57.619Z,29.45
2023-01-29T01:45:27.791Z,29.50
2023-01-29T01:45:57.848Z,29.47
2023-01-29T01:46:27.826Z,29.47
2023-01-29T01:46:57.911Z,29.50
2023-01-29T01:47:27.988Z,29.48
2023-01-29T01:47:58.076Z,29.50
2023-01-29T01:48:28.167Z,29.50
2023-01-29T01:48:58.171Z,29.45
2023-01-29T01:49:28.196Z,29.51
2023-01-29T01:49:58.181Z,29.45
2023-01-29T01:50:28.187Z,29.51
2023-01-29T01:50:58.193Z,29.53
2023-01-29T01:51:28.202Z,29.50
2023-01-29T01:51:58.213Z,29.50
2023-01-29T01:52:28.215Z,29.50
2023-01-29T01:52:58.217Z,29.48
2023-01-29T01:53:28.221Z,29.48
2023-01-29T01:53:58.233Z,29.50
2023-01-29T01:54:28.245Z,29.48
2023-01-29T01:54:58.249Z,29.48
2023-01-29T01:55:28.287Z,29.45
2023-01-29T01:55:58.301Z,29.43
2023-01-29T01:56:28.313Z,29.51
2023-01-29T01:56:58.317Z,29.44
2023-01-29T01:57:28.316Z,29.48
2023-01-29T01:57:58.318Z,29.54
2023-01-29T01:58:28.333Z,29.53
2023-01-29T01:58:58.345Z,29.55
2023-01-29T01:59:28.344Z,29.50
2023-01-29T01:59:58.356Z,29.47
2023-01-29T02:00:28.361Z,29.49
2023-01-29T02:00:58.405Z,29.44
2023-01-29T02:01:28.459Z,29.48
2023-01-29T02:01:58.525Z,29.49
2023-01-29T02:02:28.540Z,29.50
2023-01-29T02:02:58.541Z,29.42
2023-01-29T02:03:28.530Z,29.42
2023-01-29T02:03:58.540Z,29.44
2023-01-29T02:04:28.536Z,29.42
2023-01-29T02:04:58.561Z,29.47
2023-01-29T02:05:28.551Z,29.48
2023-01-29T02:05:58.564Z,29.49
2023-01-29T02:06:28.558Z,29.55
2023-01-29T02:06:58.561Z,29.48
2023-01-29T02:07:28.570Z,29.49
2023-01-29T02:07:58.580Z,29.51
2023-01-29T02:08:28.586Z,29.45
2023-01-29T02:08:58.599Z,29.48
2023-01-29T02:09:28.603Z,29.48
2023-01-29T02:09:58.608Z,29.45
2023-01-29T02:10:28.614Z,29.48
2023-01-29T02:10:58.637Z,29.49
2023-01-29T02:11:28.638Z,29.48
2023-01-29T02:11:58.634Z,29.39
2023-01-29T02:12:28.641Z,29.47
2023-01-29T02:12:58.648Z,29.45
2023-01-29T02:13:28.658Z,29.45
2023-01-29T02:13:58.680Z,29.42
2023-01-29T02:14:28.701Z,29.39
2023-01-29T02:14:58.680Z,29.42
2023-01-29T02:15:28.680Z,29.39
2023-01-29T02:15:58.706Z,29.47
2023-01-29T02:16:28.706Z,29.45
2023-01-29T02:16:58.715Z,29.44
2023-01-29T02:17:28.812Z,29.45
2023-01-29T02:17:58.808Z,29.39
2023-01-29T02:18:28.820Z,29.41
2023-01-29T02:18:58.826Z,29.48
2023-01-29T02:19:28.839Z,29.44
2023-01-29T02:19:58.840Z,29.44
2023-01-29T02:20:28.865Z,29.42
2023-01-29T02:20:58.842Z,29.44
2023-01-29T02:21:28.858Z,29.41
2023-01-29T02:21:58.877Z,29.35
2023-01-29T02:22:28.865Z,29.39
2023-01-29T02:22:58.868Z,29.48
2023-01-29T02:23:28.892Z,29.45
2023-01-29T02:23:59.006Z,29.42
2023-01-29T02:24:29.013Z,29.39
2023-01-29T02:24:59.117Z,29.47
2023-01-29T02:25:29.100Z,29.43
2023-01-29T02:25:59.109Z,29.49
2023-01-29T02:26:29.136Z,29.44
2023-01-29T02:26:59.143Z,29.49
2023-01-29T02:27:29.150Z,29.49
2023-01-29T02:27:59.151Z,29.45
2023-01-29T02:28:29.164Z,29.49
2023-01-29T02:28:59.165Z,29.49
2023-01-29T02:29:29.179Z,29.46
2023-01-29T02:29:59.191Z,29.43
2023-01-29T02:30:29.197Z,29.44
2023-01-29T02:30:59.222Z,29.44
2023-01-29T02:31:29.260Z,29.45
2023-01-29T02:31:59.385Z,29.47
2023-01-29T02:32:29.295Z,29.42
2023-01-29T02:32:59.294Z,29.43
2023-01-29T02:33:29.304Z,29.39
2023-01-29T02:33:59.378Z,29.43
2023-01-29T02:34:29.388Z,29.49
2023-01-29T02:34:59.409Z,29.40
2023-01-29T02:35:29.403Z,29.48
2023-01-29T02:35:59.431Z,29.50
2023-01-29T02:36:29.413Z,29.48
2023-01-29T02:36:59.421Z,29.46
2023-01-29T02:37:29.446Z,29.46
2023-01-29T02:37:59.437Z,29.46
2023-01-29T02:38:29.545Z,29.48
2023-01-29T02:38:59.628Z,29.40
2023-01-29T02:39:29.709Z,29.42
2023-01-29T02:39:59.713Z,29.45
2023-01-29T02:40:29.803Z,29.43
2023-01-29T02:40:59.892Z,29.46
2023-01-29T02:41:29.987Z,29.48
2023-01-29T02:42:00.080Z,29.45
2023-01-29T02:42:30.161Z,29.46
2023-01-29T02:43:00.241Z,29.51
2023-01-29T02:43:30.321Z,29.44
2023-01-29T02:44:00.398Z,29.44
2023-01-29T02:44:30.488Z,29.40
2023-01-29T02:45:00.581Z,29.45
2023-01-29T02:45:30.688Z,29.44
2023-01-29T02:46:00.727Z,29.49
2023-01-29T02:46:30.716Z,29.48
2023-01-29T02:47:00.797Z,29.49
2023-01-29T02:47:30.905Z,29.52
2023-01-29T02:48:00.974Z,29.44
2023-01-29T02:48:31.063Z,29.42
2023-01-29T02:49:01.073Z,29.46
2023-01-29T02:49:31.078Z,29.44
2023-01-29T02:50:01.106Z,29.43
2023-01-29T02:50:31.108Z,29.42
2023-01-29T02:51:01.099Z,29.42
2023-01-29T02:51:31.150Z,29.40
2023-01-29T02:52:01.144Z,29.43
2023-01-29T02:52:31.163Z,29.39
2023-01-29T02:53:01.170Z,29.36
2023-01-29T02:53:31.176Z,29.39
2023-01-29T02:54:01.174Z,29.39
2023-01-29T02:54:31.190Z,29.42
2023-01-29T02:55:01.203Z,29.44
2023-01-29T02:55:31.223Z,29.46
2023-01-29T02:56:01.209Z,29.43
2023-01-29T02:56:31.221Z,29.48
2023-01-29T02:57:01.226Z,29.43
2023-01-29T02:57:31.247Z,29.43
2023-01-29T02:58:01.230Z,29.46
2023-01-29T02:58:31.248Z,29.41
2023-01-29T02:59:01.253Z,29.46
2023-01-29T02:59:31.261Z,29.44
2023-01-29T03:00:01.273Z,29.44
2023-01-29T03:00:31.276Z,29.46
2023-01-29T03:01:01.301Z,29.41
2023-01-29T03:01:31.302Z,29.44
2023-01-29T03:02:01.424Z,29.44
2023-01-29T03:02:31.395Z,29.47
2023-01-29T03:03:01.385Z,29.47
2023-01-29T03:03:31.379Z,29.52
2023-01-29T03:04:01.377Z,29.48
2023-01-29T03:04:31.391Z,29.47
2023-01-29T03:05:01.396Z,29.48
2023-01-29T03:05:31.397Z,29.48
2023-01-29T03:06:01.414Z,29.46
2023-01-29T03:06:31.424Z,29.43
2023-01-29T03:07:01.451Z,29.41
2023-01-29T03:07:31.434Z,29.50
2023-01-29T03:08:01.441Z,29.50
2023-01-29T03:08:31.449Z,29.42
2023-01-29T03:09:01.475Z,29.43
2023-01-29T03:09:31.466Z,29.44
2023-01-29T03:10:01.474Z,29.47
2023-01-29T03:10:31.515Z,29.44
2023-01-29T03:11:01.530Z,29.42
2023-01-29T03:11:31.509Z,29.39
2023-01-29T03:12:01.527Z,29.43
2023-01-29T03:12:31.515Z,29.43
2023-01-29T03:13:01.533Z,29.46
2023-01-29T03:13:31.520Z,29.44
2023-01-29T03:14:01.538Z,29.46
2023-01-29T03:14:31.544Z,29.43
2023-01-29T03:15:01.604Z,29.41
2023-01-29T03:15:31.614Z,29.44
2023-01-29T03:16:01.765Z,29.53
2023-01-29T03:16:31.702Z,29.53
2023-01-29T03:17:01.694Z,29.46
2023-01-29T03:17:31.695Z,29.52
2023-01-29T03:18:01.699Z,29.43
2023-01-29T03:18:31.724Z,29.41
2023-01-29T03:19:01.711Z,29.46
2023-01-29T03:19:31.721Z,29.46
2023-01-29T03:20:01.734Z,29.46
2023-01-29T03:20:31.740Z,29.46
2023-01-29T03:21:01.741Z,29.40
2023-01-29T03:21:31.750Z,29.44
2023-01-29T03:22:01.758Z,29.46
2023-01-29T03:22:31.780Z,29.43
2023-01-29T03:23:01.794Z,29.44
2023-01-29T03:23:31.775Z,29.38
2023-01-29T03:24:01.842Z,29.38
2023-01-29T03:24:31.822Z,29.39
2023-01-29T03:25:01.850Z,29.43
2023-01-29T03:25:31.839Z,29.38
2023-01-29T03:26:01.848Z,29.43
2023-01-29T03:26:31.850Z,29.41
2023-01-29T03:27:01.854Z,29.34
2023-01-29T03:27:31.851Z,29.32
2023-01-29T03:28:01.885Z,29.32
2023-01-29T03:28:31.897Z,29.32
2023-01-29T03:29:01.922Z,29.32
2023-01-29T03:29:31.908Z,29.35
2023-01-29T03:30:01.948Z,29.34
2023-01-29T03:30:31.948Z,29.34
2023-01-29T03:31:01.947Z,29.34
2023-01-29T03:31:32.093Z,29.32
2023-01-29T03:32:02.026Z,29.37
2023-01-29T03:32:32.037Z,29.29
2023-01-29T03:33:02.047Z,29.34
2023-01-29T03:33:32.051Z,29.34
2023-01-29T03:34:02.054Z,29.34
2023-01-29T03:34:32.065Z,29.38
2023-01-29T03:35:02.058Z,29.35
2023-01-29T03:35:32.059Z,29.31
2023-01-29T03:36:02.075Z,29.31
2023-01-29T03:36:32.087Z,29.29
2023-01-29T03:37:02.081Z,29.40
2023-01-29T03:37:32.088Z,29.32
2023-01-29T03:38:02.112Z,29.29
2023-01-29T03:38:32.198Z,29.29
2023-01-29T03:39:02.297Z,29.22
2023-01-29T03:39:32.377Z,29.32
2023-01-29T03:40:02.458Z,29.31
2023-01-29T03:40:32.543Z,29.32
2023-01-29T03:41:02.633Z,29.34
2023-01-29T03:41:32.719Z,29.32
2023-01-29T03:42:02.818Z,29.32
2023-01-29T03:42:32.896Z,29.25
2023-01-29T03:43:02.976Z,29.22
2023-01-29T03:43:33.143Z,29.25
2023-01-29T03:44:03.149Z,29.26
2023-01-29T03:44:33.231Z,29.26
2023-01-29T03:45:03.305Z,29.29
2023-01-29T03:45:33.437Z,29.26
2023-01-29T03:46:03.573Z,29.32
2023-01-29T03:46:33.525Z,29.31
2023-01-29T03:47:03.606Z,29.37
2023-01-29T03:47:33.693Z,29.35
2023-01-29T03:48:03.783Z,29.32
2023-01-29T03:48:33.885Z,29.26
2023-01-29T03:49:03.885Z,29.30
2023-01-29T03:49:33.888Z,29.28
2023-01-29T03:50:03.897Z,29.28
2023-01-29T03:50:33.910Z,29.31
2023-01-29T03:51:03.925Z,29.26
2023-01-29T03:51:33.928Z,29.26
2023-01-29T03:52:03.932Z,29.29
2023-01-29T03:52:33.933Z,29.34
2023-01-29T03:53:03.932Z,29.37
2023-01-29T03:53:33.952Z,29.35
2023-01-29T03:54:03.953Z,29.28
2023-01-29T03:54:33.954Z,29.32
2023-01-29T03:55:03.974Z,29.32
2023-01-29T03:55:33.962Z,29.28
2023-01-29T03:56:03.991Z,29.37
2023-01-29T03:56:33.989Z,29.34
2023-01-29T03:57:03.985Z,29.31
2023-01-29T03:57:33.997Z,29.23
2023-01-29T03:58:04.008Z,29.26
2023-01-29T03:58:34.018Z,29.28
2023-01-29T03:59:04.035Z,29.23
2023-01-29T03:59:34.035Z,29.23
2023-01-29T04:00:04.032Z,29.29
2023-01-29T04:00:34.036Z,29.25
2023-01-29T04:01:04.038Z,29.31
2023-01-29T04:01:34.143Z,29.30
2023-01-29T04:02:04.143Z,29.28
2023-01-29T04:02:34.146Z,29.28
2023-01-29T04:03:04.162Z,29.29
2023-01-29T04:03:34.228Z,29.25
2023-01-29T04:04:04.271Z,29.29
2023-01-29T04:04:34.256Z,29.23
2023-01-29T04:05:04.263Z,29.23
2023-01-29T04:05:34.287Z,29.29
2023-01-29T04:06:04.285Z,29.25
2023-01-29T04:06:34.291Z,29.26
2023-01-29T04:07:04.304Z,29.25
2023-01-29T04:07:34.319Z,29.28
2023-01-29T04:08:04.319Z,29.26
2023-01-29T04:08:34.320Z,29.29
2023-01-29T04:09:04.324Z,29.22
2023-01-29T04:09:34.331Z,29.25
2023-01-29T04:10:04.334Z,29.32
2023-01-29T04:10:34.345Z,29.25
2023-01-29T04:11:04.351Z,29.28
2023-01-29T04:11:34.354Z,29.28
2023-01-29T04:12:04.355Z,29.28
2023-01-29T04:12:34.369Z,29.29
2023-01-29T04:13:04.400Z,29.28
2023-01-29T04:13:34.395Z,29.28
2023-01-29T04:14:04.402Z,29.34
2023-01-29T04:14:34.410Z,29.29
2023-01-29T04:15:04.418Z,29.29
2023-01-29T04:15:34.419Z,29.28
2023-01-29T04:16:04.471Z,29.25
2023-01-29T04:16:34.552Z,29.26
2023-01-29T04:17:04.534Z,29.28
2023-01-29T04:17:34.542Z,29.29
2023-01-29T04:18:04.544Z,29.26
2023-01-29T04:18:34.557Z,29.26
2023-01-29T04:19:04.562Z,29.22
2023-01-29T04:19:34.583Z,29.29
2023-01-29T04:20:04.576Z,29.26
2023-01-29T04:20:34.581Z,29.23
2023-01-29T04:21:04.587Z,29.17
2023-01-29T04:21:34.593Z,29.23
2023-01-29T04:22:04.618Z,29.28
2023-01-29T04:22:34.625Z,29.25
2023-01-29T04:23:04.631Z,29.23
2023-01-29T04:23:34.638Z,29.22
2023-01-29T04:24:04.731Z,29.17
2023-01-29T04:24:34.740Z,29.20
2023-01-29T04:25:04.731Z,29.21
2023-01-29T04:25:34.729Z,29.25
2023-01-29T04:26:04.732Z,29.22
2023-01-29T04:26:34.738Z,29.26
2023-01-29T04:27:04.735Z,29.27
2023-01-29T04:27:34.744Z,29.25
2023-01-29T04:28:04.775Z,29.20
2023-01-29T04:28:34.779Z,29.28
2023-01-29T04:29:04.795Z,29.21
2023-01-29T04:29:34.796Z,29.26
2023-01-29T04:30:04.804Z,29.20
2023-01-29T04:30:34.869Z,29.19
2023-01-29T04:31:05.137Z,29.25
2023-01-29T04:31:35.006Z,29.17
2023-01-29T04:32:04.919Z,29.20
2023-01-29T04:32:34.934Z,29.20
2023-01-29T04:33:04.941Z,29.21
2023-01-29T04:33:34.942Z,29.14
2023-01-29T04:34:04.959Z,29.17
2023-01-29T04:34:34.959Z,29.25
2023-01-29T04:35:04.978Z,29.20
2023-01-29T04:35:34.978Z,29.18
2023-01-29T04:36:04.991Z,29.24
2023-01-29T04:36:35.021Z,29.23
2023-01-29T04:37:05.003Z,29.23
2023-01-29T04:37:35.014Z,29.20
2023-01-29T04:38:05.019Z,29.23
2023-01-29T04:38:35.123Z,29.20
2023-01-29T04:39:05.208Z,29.17
2023-01-29T04:39:35.286Z,29.20
2023-01-29T04:40:05.371Z,29.18
2023-01-29T04:40:35.459Z,29.20
2023-01-29T04:41:05.571Z,29.15
2023-01-29T04:41:35.542Z,29.19
2023-01-29T04:42:05.628Z,29.17
2023-01-29T04:42:35.705Z,29.18
2023-01-29T04:43:05.791Z,29.11
2023-01-29T04:43:35.883Z,29.14
2023-01-29T04:44:05.968Z,29.22
2023-01-29T04:44:36.035Z,29.14
2023-01-29T04:45:06.122Z,29.10
2023-01-29T04:45:36.210Z,29.15
2023-01-29T04:46:06.293Z,29.14
2023-01-29T04:46:36.369Z,29.20
2023-01-29T04:47:06.506Z,29.17
2023-01-29T04:47:36.511Z,29.17
2023-01-29T04:48:06.483Z,29.15
2023-01-29T04:48:36.676Z,29.14
2023-01-29T04:49:06.648Z,29.18
2023-01-29T04:49:36.647Z,29.21
2023-01-29T04:50:06.648Z,29.18
2023-01-29T04:50:36.655Z,29.20
2023-01-29T04:51:06.655Z,29.17
2023-01-29T04:51:36.658Z,29.14
2023-01-29T04:52:06.672Z,29.14
2023-01-29T04:52:36.682Z,29.12
2023-01-29T04:53:06.690Z,29.12
2023-01-29T04:53:36.699Z,29.12
2023-01-29T04:54:06.706Z,29.12
2023-01-29T04:54:36.706Z,29.11
2023-01-29T04:55:06.714Z,29.17
2023-01-29T04:55:36.716Z,29.15
2023-01-29T04:56:06.725Z,29.08
2023-01-29T04:56:36.730Z,29.12
2023-01-29T04:57:06.748Z,29.17
2023-01-29T04:57:36.739Z,29.18
2023-01-29T04:58:06.743Z,29.06
2023-01-29T04:58:36.751Z,29.12
2023-01-29T04:59:06.754Z,29.15
2023-01-29T04:59:36.762Z,29.18
2023-01-29T05:00:06.777Z,29.21
2023-01-29T05:00:36.772Z,29.20
2023-01-29T05:01:06.775Z,29.15
2023-01-29T05:01:36.801Z,29.18
2023-01-29T05:02:06.776Z,29.18
2023-01-29T05:02:36.800Z,29.20
2023-01-29T05:03:06.797Z,29.21
2023-01-29T05:03:36.843Z,29.24
2023-01-29T05:04:06.844Z,29.15
2023-01-29T05:04:36.850Z,29.24
2023-01-29T05:05:06.856Z,29.17
2023-01-29T05:05:36.856Z,29.18
2023-01-29T05:06:06.859Z,29.23
2023-01-29T05:06:36.864Z,29.20
2023-01-29T05:07:06.869Z,29.17
2023-01-29T05:07:36.882Z,29.23
2023-01-29T05:08:06.882Z,29.20
2023-01-29T05:08:36.896Z,29.20
2023-01-29T05:09:06.900Z,29.17
2023-01-29T05:09:36.909Z,29.21
2023-01-29T05:10:06.914Z,29.24
2023-01-29T05:10:36.923Z,29.24
2023-01-29T05:11:06.942Z,29.21
2023-01-29T05:11:36.934Z,29.25
2023-01-29T05:12:06.939Z,29.27
2023-01-29T05:12:36.962Z,29.23
2023-01-29T05:13:06.983Z,29.26
2023-01-29T05:13:39.429Z,29.27
2023-01-29T05:14:07.072Z,29.18
2023-01-29T05:14:37.079Z,29.26
2023-01-29T05:15:07.094Z,29.23
2023-01-29T05:15:37.100Z,29.22
2023-01-29T05:16:07.192Z,29.28
2023-01-29T05:16:37.190Z,29.22
2023-01-29T05:17:07.191Z,29.19
2023-01-29T05:17:37.193Z,29.21
2023-01-29T05:18:07.207Z,29.24
2023-01-29T05:18:37.209Z,29.22
2023-01-29T05:19:07.224Z,29.19
2023-01-29T05:19:37.230Z,29.23
2023-01-29T05:20:07.266Z,29.24
2023-01-29T05:20:37.316Z,29.24
2023-01-29T05:21:07.338Z,29.18
2023-01-29T05:21:39.155Z,29.19
2023-01-29T05:22:07.426Z,29.15
2023-01-29T05:22:37.415Z,29.21
2023-01-29T05:23:07.424Z,29.19
2023-01-29T05:23:37.487Z,29.21
2023-01-29T05:24:07.517Z,29.18
2023-01-29T05:24:37.537Z,29.19
2023-01-29T05:25:07.535Z,29.17
2023-01-29T05:25:37.534Z,29.15
2023-01-29T05:26:07.542Z,29.18
2023-01-29T05:26:37.554Z,29.13
2023-01-29T05:27:07.564Z,29.13
2023-01-29T05:27:37.571Z,29.10
2023-01-29T05:28:07.567Z,29.15
2023-01-29T05:28:37.669Z,29.13
2023-01-29T05:29:07.660Z,29.17
2023-01-29T05:29:37.686Z,29.16
2023-01-29T05:30:07.684Z,29.18
2023-01-29T05:30:37.775Z,29.18
2023-01-29T05:31:07.828Z,29.16
2023-01-29T05:31:37.803Z,29.13
2023-01-29T05:32:07.818Z,29.18
2023-01-29T05:32:37.818Z,29.16
2023-01-29T05:33:07.834Z,29.12
2023-01-29T05:33:37.842Z,29.12
2023-01-29T05:34:07.853Z,29.18
2023-01-29T05:34:37.861Z,29.15
2023-01-29T05:35:07.864Z,29.13
2023-01-29T05:35:37.876Z,29.09
2023-01-29T05:36:07.878Z,29.13
2023-01-29T05:36:37.886Z,29.12
2023-01-29T05:37:07.888Z,29.16
2023-01-29T05:37:37.898Z,29.15
2023-01-29T05:38:07.911Z,29.12
2023-01-29T05:38:38.003Z,29.15
2023-01-29T05:39:08.089Z,29.19
2023-01-29T05:39:38.165Z,29.15
2023-01-29T05:40:08.246Z,29.13
2023-01-29T05:40:38.334Z,29.14
2023-01-29T05:41:08.408Z,29.10
2023-01-29T05:41:38.491Z,29.12
2023-01-29T05:42:08.581Z,29.09
2023-01-29T05:42:38.659Z,29.13
2023-01-29T05:43:08.740Z,29.10
2023-01-29T05:43:38.841Z,29.12
2023-01-29T05:44:08.923Z,29.12
2023-01-29T05:44:39.003Z,29.12
2023-01-29T05:45:09.194Z,29.15
2023-01-29T05:45:39.161Z,29.15
2023-01-29T05:46:09.241Z,29.15
2023-01-29T05:46:39.394Z,29.13
2023-01-29T05:47:09.380Z,29.12
2023-01-29T05:47:39.446Z,29.09
2023-01-29T05:48:09.532Z,29.05
2023-01-29T05:48:39.532Z,29.10
2023-01-29T05:49:09.534Z,29.09
2023-01-29T05:49:39.540Z,29.09
2023-01-29T05:50:09.557Z,29.09
2023-01-29T05:50:39.568Z,29.12
2023-01-29T05:51:09.579Z,29.12
2023-01-29T05:51:39.575Z,29.10
2023-01-29T05:52:09.583Z,29.14
2023-01-29T05:52:39.591Z,29.09
2023-01-29T05:53:09.598Z,29.06
2023-01-29T05:53:39.604Z,29.06
2023-01-29T05:54:09.606Z,29.09
2023-01-29T05:54:39.609Z,29.09
2023-01-29T05:55:09.624Z,29.07
2023-01-29T05:55:39.626Z,29.07
2023-01-29T05:56:09.641Z,29.13
2023-01-29T05:56:39.640Z,29.19
2023-01-29T05:57:09.637Z,29.13
2023-01-29T05:57:39.644Z,29.12
2023-01-29T05:58:09.659Z,29.12
2023-01-29T05:58:39.661Z,29.14
2023-01-29T05:59:09.679Z,29.12
2023-01-29T05:59:39.677Z,29.10
2023-01-29T06:00:09.680Z,29.09
2023-01-29T06:00:39.681Z,29.10
2023-01-29T06:01:09.686Z,29.15
2023-01-29T06:01:39.761Z,29.12
2023-01-29T06:02:09.790Z,29.07
2023-01-29T06:02:39.909Z,29.07
2023-01-29T06:03:09.951Z,29.10
2023-01-29T06:03:39.865Z,29.16
2023-01-29T06:04:09.905Z,29.15
2023-01-29T06:04:39.901Z,29.15
2023-01-29T06:05:09.923Z,29.17
2023-01-29T06:05:39.926Z,29.13
2023-01-29T06:06:09.918Z,29.19
2023-01-29T06:06:39.940Z,29.13
2023-01-29T06:07:09.940Z,29.16
2023-01-29T06:07:41.241Z,29.16
2023-01-29T06:08:10.027Z,29.13
2023-01-29T06:08:40.034Z,29.15
2023-01-29T06:09:10.041Z,29.12
2023-01-29T06:09:40.042Z,29.12
2023-01-29T06:10:10.053Z,29.15
2023-01-29T06:10:40.058Z,29.11
2023-01-29T06:11:10.063Z,29.10
2023-01-29T06:11:40.094Z,29.15
2023-01-29T06:12:10.075Z,29.10
2023-01-29T06:12:40.091Z,29.10
2023-01-29T06:13:10.087Z,29.16
2023-01-29T06:13:40.108Z,29.15
2023-01-29T06:14:10.118Z,29.10
2023-01-29T06:14:40.118Z,29.10
2023-01-29T06:15:10.121Z,29.08
2023-01-29T06:15:40.162Z,29.06
2023-01-29T06:16:10.205Z,29.10
2023-01-29T06:16:40.220Z,29.13
2023-01-29T06:17:10.220Z,29.13
2023-01-29T06:17:40.221Z,29.09
2023-01-29T06:18:10.231Z,29.11
2023-01-29T06:18:40.230Z,29.15
2023-01-29T06:19:10.245Z,29.11
2023-01-29T06:19:40.246Z,29.10
2023-01-29T06:20:10.262Z,29.11
2023-01-29T06:20:40.269Z,29.15
2023-01-29T06:21:10.266Z,29.11
2023-01-29T06:21:40.275Z,29.06
2023-01-29T06:22:10.286Z,29.07
2023-01-29T06:22:40.296Z,29.09
2023-01-29T06:23:10.303Z,29.03
2023-01-29T06:23:40.306Z,29.04
2023-01-29T06:24:10.387Z,29.01
2023-01-29T06:24:40.393Z,29.04
2023-01-29T06:25:10.415Z,29.06
2023-01-29T06:25:40.429Z,29.06
2023-01-29T06:26:10.434Z,29.05
2023-01-29T06:26:40.435Z,29.07